Time;durP1;ratioP1;P1;durP2;ratioP2;P2;SDS_P1;SDS_P2;PMS_P1;PMS_P2;Temp;Humidity;BMP_temperature;BMP_pressure;BME280_temperature;BME280_humidity;BME280_pressure;Samples;Min_cycle;Max_cycle;Signal;HPM_P1;HPM_P2
2023/09/21 00:00:21;;;;;;;0.20;0.20;;;;;;;16.53;100.00;99062.06;4974105;28;20534;-63
2023/09/21 00:02:49;;;;;;;0.20;0.20;;;;;;;16.50;100.00;99056.91;4970388;28;20037;-63
2023/09/21 00:05:20;;;;;;;0.20;0.20;;;;;;;16.49;100.00;99057.91;4976418;28;20030;-64
2023/09/21 00:07:46;;;;;;;0.20;0.20;;;;;;;16.45;100.00;99054.56;4972846;28;20139;-64
2023/09/21 00:10:12;;;;;;;0.20;0.20;;;;;;;16.42;100.00;99051.22;4957913;28;20394;-63
2023/09/21 00:12:38;;;;;;;0.20;0.20;;;;;;;16.37;100.00;99051.53;4975888;28;20058;-64
2023/09/21 00:15:05;;;;;;;0.20;0.20;;;;;;;16.33;100.00;99050.03;4977229;28;20513;-64
2023/09/21 00:17:32;;;;;;;0.30;0.30;;;;;;;16.32;100.00;99051.00;4966459;28;20032;-64
2023/09/21 00:19:59;;;;;;;0.20;0.20;;;;;;;16.32;100.00;99039.41;4971605;28;20023;-63
2023/09/21 00:22:25;;;;;;;0.20;0.20;;;;;;;16.31;100.00;99048.44;4980171;28;20041;-64
2023/09/21 00:24:52;;;;;;;0.20;0.20;;;;;;;16.29;100.00;99048.53;4978847;28;20026;-64
2023/09/21 00:27:18;;;;;;;0.20;0.20;;;;;;;16.29;100.00;99042.31;4968592;28;20548;-64
2023/09/21 00:29:46;;;;;;;0.20;0.20;;;;;;;16.27;100.00;99036.19;4979223;28;20065;-63
2023/09/21 00:32:11;;;;;;;0.20;0.20;;;;;;;16.27;100.00;99039.75;4990554;28;20030;-64
2023/09/21 00:34:37;;;;;;;0.20;0.20;;;;;;;16.29;100.00;99039.63;4977485;28;20026;-63
2023/09/21 00:37:02;;;;;;;0.28;0.28;;;;;;;16.28;100.00;99029.84;4971088;28;20038;-63
2023/09/21 00:39:29;;;;;;;0.20;0.20;;;;;;;16.28;100.00;99024.47;4961806;28;20085;-63
2023/09/21 00:41:55;;;;;;;0.20;0.20;;;;;;;16.31;100.00;99029.66;4981146;28;20102;-63
2023/09/21 00:44:20;;;;;;;0.20;0.20;;;;;;;16.29;100.00;99031.59;4977722;28;20065;-64
2023/09/21 00:46:46;;;;;;;0.20;0.20;;;;;;;16.31;100.00;99029.66;4979187;28;20026;-63
2023/09/21 00:49:13;;;;;;;0.20;0.20;;;;;;;16.33;100.00;99027.69;4978003;28;20086;-63
2023/09/21 00:51:39;;;;;;;0.20;0.20;;;;;;;16.35;100.00;99034.69;4962333;28;20065;-63
2023/09/21 00:54:05;;;;;;;0.30;0.30;;;;;;;16.35;100.00;99025.75;4977835;28;20035;-64
2023/09/21 00:56:31;;;;;;;0.30;0.30;;;;;;;16.38;100.00;99025.53;4971267;28;20027;-63
2023/09/21 00:59:00;;;;;;;0.20;0.20;;;;;;;16.37;100.00;99019.34;4962409;29;20087;-63
2023/09/21 01:01:28;;;;;;;0.20;0.20;;;;;;;16.38;100.00;99031.78;4958101;28;20034;-60
2023/09/21 01:03:58;;;;;;;0.20;0.20;;;;;;;16.42;100.00;99022.56;4969882;28;20435;-60
2023/09/21 01:06:24;;;;;;;0.28;0.28;;;;;;;16.46;100.00;99017.81;4971421;28;20031;-60
2023/09/21 01:08:50;;;;;;;0.30;0.30;;;;;;;16.53;100.00;99024.47;4971470;28;20391;-60
2023/09/21 01:11:16;;;;;;;0.20;0.20;;;;;;;16.62;100.00;99023.81;4965755;28;20059;-61
2023/09/21 01:13:42;;;;;;;0.20;0.20;;;;;;;16.71;100.00;99015.94;4967633;28;20038;-60
2023/09/21 01:16:11;;;;;;;0.10;0.10;;;;;;;16.78;100.00;98997.56;4951633;29;20023;-61
2023/09/21 01:18:37;;;;;;;0.20;0.20;;;;;;;16.84;100.00;99010.53;4952976;28;20031;-60
2023/09/21 01:21:08;;;;;;;0.20;0.20;;;;;;;16.90;100.00;99002.88;4965761;28;20019;-60
2023/09/21 01:23:45;;;;;;;0.30;0.30;;;;;;;16.98;100.00;98999.63;4951695;29;20559;-62
2023/09/21 01:26:12;;;;;;;0.30;0.30;;;;;;;17.03;100.00;99006.34;4951308;29;20035;-60
2023/09/21 01:28:38;;;;;;;0.20;0.20;;;;;;;17.09;100.00;99007.72;4946828;28;20031;-61
2023/09/21 01:31:05;;;;;;;0.20;0.20;;;;;;;17.13;100.00;98998.47;4961000;28;20430;-60
2023/09/21 01:33:31;;;;;;;0.20;0.20;;;;;;;17.17;100.00;98999.94;4970860;28;20039;-60
2023/09/21 01:35:58;;;;;;;0.20;0.20;;;;;;;17.23;100.00;98983.38;4971063;28;20018;-60
2023/09/21 01:38:26;;;;;;;0.20;0.20;;;;;;;17.28;100.00;98980.34;4968152;28;20494;-60
2023/09/21 01:40:53;;;;;;;0.20;0.20;;;;;;;17.31;100.00;98985.47;4968839;28;20022;-60
2023/09/21 01:43:18;;;;;;;0.20;0.20;;;;;;;17.35;100.00;98986.97;4966272;28;20038;-60
2023/09/21 01:45:50;;;;;;;0.25;0.25;;;;;;;17.34;100.00;98972.66;4970677;28;20080;-60
2023/09/21 01:48:20;;;;;;;0.20;0.20;;;;;;;17.34;100.00;98956.53;4967183;28;20551;-60
2023/09/21 01:50:51;;;;;;;0.20;0.20;;;;;;;17.39;100.00;98961.53;4970761;28;20023;-60
2023/09/21 01:53:18;;;;;;;0.15;0.15;;;;;;;17.41;100.00;98963.16;4968395;28;20053;-60
2023/09/21 01:55:47;;;;;;;0.20;0.20;;;;;;;17.32;100.00;98947.72;4970865;28;20549;-60
2023/09/21 01:58:14;;;;;;;0.20;0.20;;;;;;;17.44;100.00;98960.22;4969753;28;20034;-60
2023/09/21 02:00:46;;;;;;;0.20;0.20;;;;;;;17.46;100.00;98958.28;4968407;28;20557;-61
2023/09/21 02:03:13;;;;;;;0.20;0.20;;;;;;;17.46;100.00;98950.22;4984939;28;20473;-60
2023/09/21 02:05:40;;;;;;;0.20;0.20;;;;;;;17.49;100.00;98951.81;4970192;28;20077;-61
2023/09/21 02:08:07;;;;;;;0.30;0.30;;;;;;;17.52;100.00;98952.44;4966683;28;20034;-60
2023/09/21 02:10:33;;;;;;;0.20;0.20;;;;;;;17.51;100.00;98945.34;4961153;28;20034;-58
2023/09/21 02:13:00;;;;;;;0.20;0.20;;;;;;;17.53;100.00;98953.31;4971188;28;20051;-58
2023/09/21 02:15:27;;;;;;;0.20;0.20;;;;;;;17.46;100.00;98935.94;4965944;28;20027;-58
2023/09/21 02:17:55;;;;;;;0.20;0.20;;;;;;;17.51;100.00;98944.50;4969513;28;20030;-58
2023/09/21 02:20:26;;;;;;;0.20;0.20;;;;;;;17.50;100.00;98924.81;4963025;28;20062;-57
2023/09/21 02:22:57;;;;;;;0.20;0.20;;;;;;;17.53;100.00;98926.44;4958470;28;20049;-57
2023/09/21 02:25:24;;;;;;;0.20;0.20;;;;;;;17.53;100.00;98927.25;4965961;28;20098;-58
2023/09/21 02:27:49;;;;;;;0.20;0.20;;;;;;;17.50;100.00;98919.44;4966112;28;20037;-58
2023/09/21 02:30:17;;;;;;;0.20;0.20;;;;;;;17.51;100.00;98915.75;4941605;28;20027;-58
2023/09/21 02:32:50;;;;;;;0.20;0.20;;;;;;;17.49;100.00;98917.75;4970080;28;20027;-58
2023/09/21 02:35:19;;;;;;;0.22;0.22;;;;;;;17.55;100.00;98929.84;4960661;28;20027;-58
2023/09/21 02:37:46;;;;;;;0.30;0.30;;;;;;;17.51;100.00;98934.59;4967767;28;20125;-59
2023/09/21 02:40:16;;;;;;;0.20;0.20;;;;;;;17.50;100.00;98927.50;4966455;28;20098;-58
2023/09/21 02:42:46;;;;;;;0.30;0.30;;;;;;;17.49;100.00;98925.81;4969136;28;20030;-57
2023/09/21 02:45:12;;;;;;;0.20;0.20;;;;;;;17.54;100.00;98918.25;4969625;28;20037;-58
2023/09/21 02:47:39;;;;;;;0.20;0.20;;;;;;;17.54;100.00;98914.69;4956475;28;20069;-60
2023/09/21 02:50:15;;;;;;;0.20;0.20;;;;;;;17.55;100.00;98919.06;4970067;28;20054;-59
2023/09/21 02:52:56;;;;;;;0.20;0.20;;;;;;;17.56;100.00;98908.19;4969496;28;20521;-59
2023/09/21 02:55:26;;;;;;;0.22;0.22;;;;;;;17.58;100.00;98911.63;4969784;28;20442;-59
2023/09/21 02:58:05;;;;;;;0.17;0.17;;;;;;;17.56;100.00;98905.50;4957621;28;20122;-59
2023/09/21 03:00:50;;;;;;;0.20;0.20;;;;;;;17.63;100.00;98892.44;4955687;28;20114;-59
2023/09/21 03:03:17;;;;;;;0.20;0.20;;;;;;;17.65;100.00;98893.19;4964655;28;20402;-60
2023/09/21 03:05:47;;;;;;;0.20;0.20;;;;;;;17.67;100.00;98892.09;4970006;28;20374;-60
2023/09/21 03:08:14;;;;;;;0.20;0.20;;;;;;;17.68;100.00;98893.78;4963253;28;20027;-59
2023/09/21 03:10:44;;;;;;;0.20;0.20;;;;;;;17.67;100.00;98900.16;4963069;28;20849;-59
2023/09/21 03:13:17;;;;;;;0.20;0.20;;;;;;;17.67;100.00;98897.47;4970766;28;20529;-60
2023/09/21 03:15:44;;;;;;;0.20;0.20;;;;;;;17.71;100.00;98898.94;4972502;28;20055;-60
2023/09/21 03:18:09;;;;;;;0.20;0.20;;;;;;;17.71;100.00;98901.63;4974175;28;20495;-59
2023/09/21 03:20:36;;;;;;;0.20;0.20;;;;;;;17.73;100.00;98898.81;4964906;28;20035;-59
2023/09/21 03:23:09;;;;;;;0.20;0.20;;;;;;;17.75;100.00;98902.22;4956550;28;20035;-60
2023/09/21 03:25:40;;;;;;;0.30;0.30;;;;;;;17.75;100.00;98903.09;4954469;29;20110;-59
2023/09/21 03:28:10;;;;;;;0.20;0.20;;;;;;;17.76;100.00;98904.78;4954442;29;20046;-59
2023/09/21 03:30:39;;;;;;;0.20;0.20;;;;;;;17.79;100.00;98907.25;4967000;28;20039;-60
2023/09/21 03:33:06;;;;;;;0.20;0.20;;;;;;;17.82;100.00;98906.16;4973098;28;20039;-60
2023/09/21 03:35:32;;;;;;;0.20;0.20;;;;;;;17.85;100.00;98905.91;4974418;28;20387;-59
2023/09/21 03:37:58;;;;;;;0.20;0.20;;;;;;;17.85;100.00;98896.00;4972575;28;20049;-59
2023/09/21 03:40:25;;;;;;;0.20;0.20;;;;;;;17.85;100.00;98885.25;4970602;28;20027;-60
2023/09/21 03:42:56;;;;;;;0.20;0.20;;;;;;;17.94;100.00;98887.19;4968911;28;20039;-60
2023/09/21 03:45:25;;;;;;;0.20;0.20;;;;;;;17.98;100.00;98890.50;4970929;28;20054;-60
2023/09/21 03:47:54;;;;;;;0.20;0.20;;;;;;;18.03;100.00;98890.97;4955196;28;20039;-59
2023/09/21 03:50:20;;;;;;;0.20;0.20;;;;;;;17.99;100.00;98887.66;4967395;28;20486;-59
2023/09/21 03:52:47;;;;;;;0.20;0.20;;;;;;;18.05;100.00;98884.50;4968975;28;20038;-60
2023/09/21 03:55:16;;;;;;;0.15;0.15;;;;;;;18.08;100.00;98880.69;4972717;28;20077;-58
2023/09/21 03:57:46;;;;;;;0.20;0.20;;;;;;;18.10;100.00;98878.75;4974241;28;20038;-60
2023/09/21 04:00:26;;;;;;;0.20;0.20;;;;;;;18.08;100.00;98868.09;4972605;28;20729;-59
2023/09/21 04:02:59;;;;;;;0.20;0.20;;;;;;;18.11;100.00;98862.47;4968664;28;20070;-60
2023/09/21 04:05:30;;;;;;;0.20;0.20;;;;;;;18.09;100.00;98856.34;4953760;29;20039;-60
2023/09/21 04:07:55;;;;;;;0.20;0.20;;;;;;;18.09;100.00;98850.97;4961278;28;20034;-60
2023/09/21 04:10:21;;;;;;;0.20;0.20;;;;;;;18.10;100.00;98855.34;4971762;28;20026;-59
2023/09/21 04:12:46;;;;;;;0.20;0.20;;;;;;;18.11;100.00;98848.16;4972057;28;20074;-59
2023/09/21 04:15:12;;;;;;;0.20;0.20;;;;;;;18.12;100.00;98850.72;4980597;28;20101;-60
2023/09/21 04:17:40;;;;;;;0.20;0.20;;;;;;;18.15;100.00;98849.63;4967642;28;20508;-59
2023/09/21 04:20:15;;;;;;;0.20;0.20;;;;;;;18.20;100.00;98864.41;4975328;28;20022;-59
2023/09/21 04:22:43;;;;;;;0.20;0.20;;;;;;;18.19;100.00;98865.38;4962223;28;20039;-59
2023/09/21 04:25:14;;;;;;;0.20;0.20;;;;;;;18.15;100.00;98858.53;4952834;28;20031;-60
2023/09/21 04:27:47;;;;;;;0.20;0.20;;;;;;;18.19;100.00;98848.38;4961203;29;20443;-62
2023/09/21 04:30:14;;;;;;;0.20;0.20;;;;;;;18.15;100.00;98853.16;4983246;28;20042;-62
2023/09/21 04:32:45;;;;;;;0.20;0.20;;;;;;;17.96;100.00;98828.72;4970279;28;20062;-62
2023/09/21 04:35:10;;;;;;;0.20;0.20;;;;;;;18.10;100.00;98847.28;4965054;28;20042;-62
2023/09/21 04:37:38;;;;;;;0.20;0.20;;;;;;;18.08;100.00;98849.28;4967550;28;20035;-62
2023/09/21 04:40:10;;;;;;;0.20;0.20;;;;;;;18.07;100.00;98846.72;4982237;28;20131;-62
2023/09/21 04:42:40;;;;;;;0.20;0.20;;;;;;;18.07;100.00;98846.72;4983946;28;20033;-62
2023/09/21 04:45:08;;;;;;;0.20;0.20;;;;;;;18.02;100.00;98852.44;4983093;28;20031;-62
2023/09/21 04:47:34;;;;;;;0.20;0.20;;;;;;;17.98;100.00;98845.63;4981725;28;20030;-62
2023/09/21 04:50:00;;;;;;;0.20;0.20;;;;;;;17.79;100.00;98818.47;4982783;28;20023;-62
2023/09/21 04:52:25;;;;;;;0.20;0.20;;;;;;;17.94;100.00;98840.63;4985156;28;20030;-62
2023/09/21 04:54:51;;;;;;;0.20;0.20;;;;;;;17.94;100.00;98837.91;4983762;28;20824;-62
2023/09/21 04:57:20;;;;;;;0.20;0.20;;;;;;;17.96;100.00;98838.63;4984449;28;20023;-62
2023/09/21 04:59:46;;;;;;;0.20;0.20;;;;;;;17.96;100.00;98828.72;4983036;28;20033;-62
2023/09/21 05:02:12;;;;;;;0.20;0.20;;;;;;;17.94;100.00;98836.06;4966145;28;20110;-62
2023/09/21 05:04:38;;;;;;;0.20;0.20;;;;;;;17.98;100.00;98829.47;4977834;28;20371;-62
2023/09/21 05:07:05;;;;;;;0.20;0.20;;;;;;;17.98;100.00;98837.53;4984272;28;20110;-62
2023/09/21 05:09:30;;;;;;;0.20;0.20;;;;;;;17.99;100.00;98836.53;4980822;28;20424;-62
2023/09/21 05:11:56;;;;;;;0.20;0.20;;;;;;;18.00;100.00;98838.28;4983917;28;20046;-62
2023/09/21 05:14:21;;;;;;;0.20;0.20;;;;;;;18.03;100.00;98834.47;4981003;28;20058;-62
2023/09/21 05:16:47;;;;;;;0.20;0.20;;;;;;;18.04;100.00;98831.66;4984676;28;20035;-62
2023/09/21 05:19:13;;;;;;;0.20;0.20;;;;;;;18.08;100.00;98838.50;4982008;28;20030;-62
2023/09/21 05:21:39;;;;;;;0.30;0.30;;;;;;;18.09;100.00;98840.19;4984296;28;20107;-62
2023/09/21 05:24:05;;;;;;;0.20;0.20;;;;;;;18.08;100.00;98829.56;4979055;28;20083;-62
2023/09/21 05:26:30;;;;;;;0.20;0.20;;;;;;;18.04;100.00;98831.66;4965530;29;20074;-62
2023/09/21 05:28:56;;;;;;;0.10;0.10;;;;;;;18.08;100.00;98833.13;4984889;28;20042;-62
2023/09/21 05:31:21;;;;;;;0.20;0.20;;;;;;;18.10;100.00;98831.13;4981526;28;20023;-62
2023/09/21 05:33:47;;;;;;;0.20;0.20;;;;;;;18.14;100.00;98829.06;4984697;28;20043;-62
2023/09/21 05:36:12;;;;;;;0.20;0.20;;;;;;;18.14;100.00;98829.91;4976522;28;20118;-62
2023/09/21 05:38:38;;;;;;;0.20;0.20;;;;;;;18.14;100.00;98820.97;4963990;28;20030;-60
2023/09/21 05:41:03;;;;;;;0.20;0.20;;;;;;;18.16;100.00;98829.78;4970238;28;20042;-60
2023/09/21 05:43:29;;;;;;;0.20;0.20;;;;;;;18.22;100.00;98831.97;4963548;28;20471;-59
2023/09/21 05:45:55;;;;;;;0.20;0.20;;;;;;;18.27;100.00;98833.31;4969839;28;20061;-59
2023/09/21 05:48:21;;;;;;;0.13;0.13;;;;;;;18.30;100.00;98837.59;4969843;28;20197;-59
2023/09/21 05:50:46;;;;;;;0.13;0.13;;;;;;;18.31;100.00;98840.16;4970783;28;20126;-58
2023/09/21 05:53:12;;;;;;;0.20;0.20;;;;;;;18.30;100.00;98843.00;4978014;28;20050;-59
2023/09/21 05:55:37;;;;;;;0.20;0.20;;;;;;;18.30;100.00;98843.81;4969156;28;20492;-59
2023/09/21 05:58:04;;;;;;;0.20;0.20;;;;;;;18.34;100.00;98844.44;4967922;28;20489;-59
2023/09/21 06:00:33;;;;;;;0.20;0.20;;;;;;;18.41;100.00;98844.81;4970054;28;20029;-58
2023/09/21 06:03:02;;;;;;;0.20;0.20;;;;;;;18.44;100.00;98849.94;4969430;28;20034;-59
2023/09/21 06:05:29;;;;;;;0.20;0.20;;;;;;;18.40;100.00;98851.19;4967875;28;20102;-60
2023/09/21 06:07:56;;;;;;;0.20;0.20;;;;;;;18.42;100.00;98854.63;4966677;28;20065;-60
2023/09/21 06:10:25;;;;;;;0.20;0.20;;;;;;;18.41;100.00;98860.97;4968747;28;20082;-60
2023/09/21 06:12:51;;;;;;;0.20;0.20;;;;;;;18.40;100.00;98843.09;4968129;28;20046;-59
2023/09/21 06:15:18;;;;;;;0.20;0.20;;;;;;;18.43;100.00;98853.63;4969939;28;20034;-59
2023/09/21 06:17:43;;;;;;;0.20;0.20;;;;;;;18.45;100.00;98859.75;4966432;28;20119;-59
2023/09/21 06:20:09;;;;;;;0.20;0.20;;;;;;;18.46;100.00;98864.13;4970052;28;20380;-59
2023/09/21 06:22:37;;;;;;;0.20;0.20;;;;;;;18.43;100.00;98854.47;4970198;28;20558;-59
2023/09/21 06:25:03;;;;;;;0.20;0.20;;;;;;;18.44;100.00;98860.69;4966823;28;20050;-59
2023/09/21 06:27:29;;;;;;;0.20;0.20;;;;;;;18.47;100.00;98857.78;4984760;28;20039;-59
2023/09/21 06:29:54;;;;;;;0.20;0.20;;;;;;;18.50;100.00;98860.22;4970047;28;20085;-59
2023/09/21 06:32:22;;;;;;;0.20;0.20;;;;;;;18.52;100.00;98864.47;4970167;28;20027;-60
2023/09/21 06:34:48;;;;;;;0.20;0.20;;;;;;;18.54;100.00;98857.13;4953630;28;20471;-59
2023/09/21 06:37:14;;;;;;;0.20;0.20;;;;;;;18.60;100.00;98855.78;4953605;28;20110;-59
2023/09/21 06:39:40;;;;;;;0.20;0.20;;;;;;;18.68;100.00;98845.22;4963781;28;20027;-59
2023/09/21 06:42:05;;;;;;;0.20;0.20;;;;;;;18.75;100.00;98841.84;4968083;28;20033;-60
2023/09/21 06:44:31;;;;;;;0.20;0.20;;;;;;;18.81;100.00;98832.41;4966984;28;20082;-59
2023/09/21 06:46:57;;;;;;;0.20;0.20;;;;;;;18.83;100.00;98833.16;4973429;28;20042;-62
2023/09/21 06:49:23;;;;;;;0.20;0.20;;;;;;;18.91;100.00;98828.78;4986455;28;20019;-62
2023/09/21 06:51:49;;;;;;;0.20;0.20;;;;;;;18.94;100.00;98811.50;4986444;28;20027;-62
2023/09/21 06:54:15;;;;;;;0.20;0.20;;;;;;;19.02;100.00;98811.72;4982375;28;20046;-62
2023/09/21 06:56:40;;;;;;;0.20;0.20;;;;;;;19.16;100.00;98814.09;4987258;28;20050;-62
2023/09/21 06:59:06;;;;;;;0.20;0.20;;;;;;;19.22;100.00;98817.09;4985722;28;20038;-62
2023/09/21 07:01:33;;;;;;;0.20;0.20;;;;;;;19.30;100.00;98811.06;4987982;28;20085;-62
2023/09/21 07:03:58;;;;;;;0.20;0.20;;;;;;;19.36;100.00;98808.69;4974423;28;20035;-62
2023/09/21 07:06:24;;;;;;;0.20;0.20;;;;;;;19.41;100.00;98805.59;4969735;28;20033;-62
2023/09/21 07:08:50;;;;;;;0.20;0.20;;;;;;;19.48;100.00;98804.06;4989517;28;20046;-62
2023/09/21 07:11:19;;;;;;;0.20;0.20;;;;;;;19.55;100.00;98802.53;4990009;28;20035;-62
2023/09/21 07:13:46;;;;;;;0.10;0.10;;;;;;;19.62;100.00;98792.91;4976884;28;20041;-62
2023/09/21 07:16:12;;;;;;;0.10;0.10;;;;;;;19.74;100.00;98799.91;4971377;28;20035;-62
2023/09/21 07:18:39;;;;;;;0.20;0.20;;;;;;;19.86;100.00;98801.53;4981919;28;20031;-62
2023/09/21 07:21:05;;;;;;;0.20;0.20;;;;;;;19.94;100.00;98804.38;4989501;28;20117;-62
2023/09/21 07:23:31;;;;;;;0.20;0.20;;;;;;;20.04;100.00;98805.25;4985231;28;20031;-62
2023/09/21 07:25:57;;;;;;;0.20;0.20;;;;;;;20.14;100.00;98806.16;4989883;28;20086;-62
2023/09/21 07:28:22;;;;;;;0.20;0.20;;;;;;;20.27;100.00;98801.38;4974028;28;20027;-62
2023/09/21 07:30:52;;;;;;;0.20;0.20;;;;;;;20.41;100.00;98797.41;4986674;28;20046;-62
2023/09/21 07:33:17;;;;;;;0.20;0.20;;;;;;;20.45;100.00;98802.38;4980366;28;20084;-62
2023/09/21 07:35:43;;;;;;;0.20;0.20;;;;;;;20.52;100.00;98805.38;4985574;28;20062;-62
2023/09/21 07:38:08;;;;;;;0.20;0.20;;;;;;;20.62;100.00;98806.22;4986323;28;20030;-62
2023/09/21 07:40:34;;;;;;;0.20;0.20;;;;;;;20.69;99.71;98794.69;4986141;28;20030;-62
2023/09/21 07:42:59;;;;;;;0.20;0.20;;;;;;;20.79;99.33;98782.03;4978252;28;20034;-62
2023/09/21 07:45:24;;;;;;;0.20;0.20;;;;;;;20.92;98.36;98777.19;4985869;28;20523;-62
2023/09/21 07:47:51;;;;;;;0.20;0.20;;;;;;;21.04;96.99;98767.09;4983477;28;20037;-62
2023/09/21 07:50:22;;;;;;;0.13;0.13;;;;;;;21.14;94.05;98769.75;4983376;28;20037;-62
2023/09/21 07:52:48;;;;;;;0.10;0.10;;;;;;;21.25;92.87;98756.09;4966236;28;20031;-62
2023/09/21 07:55:13;;;;;;;0.17;0.17;;;;;;;21.24;91.04;98746.25;4982642;28;20105;-63
2023/09/21 07:57:39;;;;;;;0.20;0.20;;;;;;;21.35;91.33;98748.78;4976029;28;20045;-60
2023/09/21 08:00:06;;;;;;;0.10;0.10;;;;;;;21.42;91.13;98745.34;4970320;28;20030;-59
2023/09/21 08:02:32;;;;;;;0.20;0.20;;;;;;;21.38;88.22;98733.13;4969283;28;20030;-59
2023/09/21 08:04:58;;;;;;;0.20;0.20;;;;;;;21.39;88.53;98742.06;4972219;28;20054;-59
2023/09/21 08:07:26;;;;;;;0.20;0.20;;;;;;;21.50;89.47;98748.16;4972051;28;20419;-59
2023/09/21 08:09:54;;;;;;;0.10;0.10;;;;;;;21.54;90.10;98757.69;4971294;28;20078;-59
2023/09/21 08:12:20;;;;;;;0.20;0.20;;;;;;;21.58;90.35;98769.91;4971651;28;20074;-60
2023/09/21 08:14:46;;;;;;;0.10;0.10;;;;;;;21.58;88.54;98780.72;4969698;28;20031;-59
2023/09/21 08:17:11;;;;;;;0.10;0.10;;;;;;;21.61;88.91;98774.19;4971673;28;20362;-60
2023/09/21 08:19:37;;;;;;;0.20;0.20;;;;;;;21.66;87.90;98774.59;4957933;28;20022;-60
2023/09/21 08:22:03;;;;;;;0.20;0.20;;;;;;;21.78;87.15;98759.84;4970372;28;20030;-59
2023/09/21 08:24:28;;;;;;;0.20;0.20;;;;;;;21.83;85.66;98750.28;4962454;28;20026;-60
2023/09/21 08:26:54;;;;;;;0.10;0.10;;;;;;;21.88;84.40;98748.00;4972100;28;20430;-58
2023/09/21 08:29:21;;;;;;;0.10;0.10;;;;;;;21.94;86.08;98749.25;4956845;28;20106;-59
2023/09/21 08:31:47;;;;;;;0.10;0.10;;;;;;;22.06;86.59;98748.00;4952853;28;20066;-59
2023/09/21 08:34:13;;;;;;;0.10;0.10;;;;;;;22.15;87.72;98742.56;4959579;28;20137;-59
2023/09/21 08:36:38;;;;;;;0.10;0.10;;;;;;;22.26;87.85;98744.16;4991145;28;20114;-59
2023/09/21 08:39:05;;;;;;;0.10;0.10;;;;;;;22.39;86.23;98738.38;4986159;28;20509;-60
2023/09/21 08:41:32;;;;;;;0.10;0.10;;;;;;;22.58;85.29;98728.25;4972002;28;20446;-59
2023/09/21 08:43:59;;;;;;;0.10;0.10;;;;;;;22.91;85.32;98716.66;4961362;28;20392;-59
2023/09/21 08:46:27;;;;;;;0.10;0.10;;;;;;;23.26;83.62;98713.00;4951601;29;20034;-60
2023/09/21 08:48:58;;;;;;;0.10;0.10;;;;;;;23.48;81.38;98717.88;4951176;29;20106;-59
2023/09/21 08:51:24;;;;;;;0.10;0.10;;;;;;;23.74;80.58;98723.25;4951289;29;20035;-60
2023/09/21 08:53:51;;;;;;;0.10;0.10;;;;;;;23.84;79.25;98726.69;4954593;28;20582;-58
2023/09/21 08:56:18;;;;;;;0.10;0.10;;;;;;;23.79;79.81;98732.59;4969849;28;20038;-59
2023/09/21 08:58:46;;;;;;;0.10;0.10;;;;;;;23.75;79.33;98730.38;4971291;28;20031;-60
2023/09/21 09:01:12;;;;;;;0.10;0.10;;;;;;;23.69;80.62;98741.91;4969216;28;20026;-59
2023/09/21 09:03:39;;;;;;;0.10;0.10;;;;;;;23.69;80.73;98736.47;4953240;28;20035;-60
2023/09/21 09:06:05;;;;;;;0.10;0.10;;;;;;;23.71;81.32;98729.00;4967640;28;20471;-60
2023/09/21 09:08:30;;;;;;;0.10;0.10;;;;;;;23.79;81.21;98732.59;4967659;28;20035;-60
2023/09/21 09:10:56;;;;;;;0.10;0.10;;;;;;;23.88;80.28;98730.75;4971340;28;20034;-59
2023/09/21 09:13:31;;;;;;;0.10;0.10;;;;;;;23.97;78.66;98725.19;4969128;28;20133;-59
2023/09/21 09:15:58;;;;;;;0.10;0.10;;;;;;;24.12;77.39;98734.44;4970302;28;20039;-59
2023/09/21 09:18:24;;;;;;;0.10;0.10;;;;;;;24.14;78.17;98726.13;4970870;28;20027;-59
2023/09/21 09:20:50;;;;;;;0.10;0.10;;;;;;;24.20;77.81;98725.47;4970829;28;20031;-60
2023/09/21 09:23:18;;;;;;;0.10;0.10;;;;;;;24.15;77.62;98733.28;4965803;28;20027;-60
2023/09/21 09:25:49;;;;;;;0.10;0.10;;;;;;;24.08;77.98;98733.09;4951785;29;20027;-59
2023/09/21 09:28:16;;;;;;;0.10;0.10;;;;;;;24.05;79.11;98733.38;4952627;28;20027;-60
2023/09/21 09:30:41;;;;;;;0.10;0.10;;;;;;;24.02;79.80;98727.47;4954924;28;20039;-60
2023/09/21 09:33:12;;;;;;;0.10;0.10;;;;;;;23.93;80.48;98718.41;4951997;29;20364;-60
2023/09/21 09:35:38;;;;;;;0.10;0.10;;;;;;;23.97;81.42;98713.50;4960821;28;20110;-60
2023/09/21 09:38:08;;;;;;;0.10;0.10;;;;;;;24.07;81.75;98714.25;4972028;28;20041;-60
2023/09/21 09:40:37;;;;;;;0.10;0.10;;;;;;;24.05;81.20;98711.66;4970638;28;20033;-59
2023/09/21 09:43:05;;;;;;;0.10;0.10;;;;;;;24.04;81.73;98709.97;4970158;28;20034;-60
2023/09/21 09:45:31;;;;;;;0.10;0.10;;;;;;;24.03;81.32;98704.69;4970156;28;20026;-60
2023/09/21 09:48:01;;;;;;;0.10;0.10;;;;;;;24.00;80.72;98705.88;4968491;28;20105;-61
2023/09/21 09:50:33;;;;;;;0.10;0.10;;;;;;;23.97;79.80;98702.63;4972781;28;20044;-60
2023/09/21 09:53:01;;;;;;;0.10;0.10;;;;;;;23.92;79.33;98705.00;4970330;28;20113;-60
2023/09/21 09:55:31;;;;;;;0.10;0.10;;;;;;;23.87;79.30;98707.34;4969344;28;20034;-60
2023/09/21 09:57:57;;;;;;;0.10;0.10;;;;;;;23.78;78.69;98697.47;4959142;28;20052;-60
2023/09/21 10:00:27;;;;;;;0.10;0.10;;;;;;;23.73;79.03;98694.38;4953605;28;20049;-60
2023/09/21 10:02:55;;;;;;;0.10;0.10;;;;;;;23.77;80.29;98695.78;4959158;28;20102;-60
2023/09/21 10:05:20;;;;;;;0.10;0.10;;;;;;;23.85;80.85;98687.66;4951642;29;20031;-60
2023/09/21 10:07:49;;;;;;;0.10;0.10;;;;;;;23.93;80.36;98684.94;4962181;28;20018;-60
2023/09/21 10:10:19;;;;;;;0.10;0.10;;;;;;;23.93;80.75;98685.81;4969986;28;20475;-60
2023/09/21 10:12:49;;;;;;;0.10;0.10;;;;;;;23.97;81.05;98689.88;4953236;28;20043;-60
2023/09/21 10:15:16;;;;;;;0.10;0.10;;;;;;;24.04;80.42;98676.50;4957962;28;20023;-60
2023/09/21 10:17:42;;;;;;;0.10;0.10;;;;;;;24.12;80.29;98679.22;4966599;28;20042;-63
2023/09/21 10:20:14;;;;;;;0.10;0.10;;;;;;;24.10;80.57;98670.41;4963549;29;20090;-63
2023/09/21 10:22:43;;;;;;;0.10;0.10;;;;;;;24.33;81.10;98666.03;4961944;28;20031;-63
2023/09/21 10:25:10;;;;;;;0.10;0.10;;;;;;;24.57;77.94;98657.88;4976259;28;20045;-63
2023/09/21 10:27:38;;;;;;;0.10;0.10;;;;;;;24.95;77.86;98672.66;4968604;28;20035;-63
2023/09/21 10:30:09;;;;;;;0.10;0.10;;;;;;;25.13;73.89;98665.97;4983581;28;20037;-63
2023/09/21 10:32:47;;;;;;;0.10;0.10;;;;;;;25.38;73.44;98662.19;4978710;28;20038;-63
2023/09/21 10:35:21;;;;;;;0.10;0.10;;;;;;;25.54;70.55;98663.97;4978602;28;20019;-63
2023/09/21 10:37:51;;;;;;;0.10;0.10;;;;;;;25.84;70.41;98660.44;4972328;28;20125;-63
2023/09/21 10:40:22;;;;;;;0.10;0.10;;;;;;;26.12;69.04;98655.34;4959611;28;20382;-63
2023/09/21 10:42:47;;;;;;;0.10;0.10;;;;;;;26.61;69.22;98651.22;4974199;28;20098;-63
2023/09/21 10:45:13;;;;;;;0.00;0.00;;;;;;;26.88;67.57;98645.19;4961324;28;20054;-63
2023/09/21 10:47:49;;;;;;;0.10;0.10;;;;;;;27.17;65.06;98640.63;4957593;28;20123;-63
2023/09/21 10:50:20;;;;;;;0.10;0.10;;;;;;;27.52;63.26;98639.03;4954798;29;20027;-62
2023/09/21 10:52:48;;;;;;;0.00;0.00;;;;;;;27.81;64.07;98630.78;4954691;29;20041;-62
2023/09/21 10:55:19;;;;;;;0.00;0.00;;;;;;;28.39;62.79;98619.66;4963207;28;20043;-62
2023/09/21 10:57:46;;;;;;;0.10;0.10;;;;;;;28.34;59.05;98611.19;4968466;28;20066;-62
2023/09/21 11:00:17;;;;;;;0.00;0.00;;;;;;;28.34;59.07;98596.66;4957128;29;20440;-62
2023/09/21 11:02:44;;;;;;;0.00;0.00;;;;;;;28.39;61.50;98600.50;4958578;28;20034;-62
2023/09/21 11:05:10;;;;;;;0.10;0.10;;;;;;;28.50;62.01;98585.47;4955550;29;20031;-62
2023/09/21 11:07:37;;;;;;;0.00;0.00;;;;;;;28.19;58.10;98580.31;4954894;29;20027;-62
2023/09/21 11:10:05;;;;;;;0.00;0.00;;;;;;;28.16;61.04;98586.19;4957728;28;20110;-62
2023/09/21 11:12:31;;;;;;;0.00;0.00;;;;;;;27.96;62.34;98576.94;4968818;28;20103;-62
2023/09/21 11:14:56;;;;;;;0.00;0.00;;;;;;;27.84;65.05;98577.63;4956512;29;20077;-62
2023/09/21 11:17:22;;;;;;;0.00;0.00;;;;;;;27.72;64.98;98584.63;4956932;28;20114;-62
2023/09/21 11:19:49;;;;;;;0.00;0.00;;;;;;;27.44;61.71;98576.31;4958245;28;20074;-62
2023/09/21 11:22:15;;;;;;;0.00;0.00;;;;;;;27.29;63.72;98577.34;4956248;29;20027;-62
2023/09/21 11:24:42;;;;;;;0.00;0.00;;;;;;;27.11;64.64;98569.53;4962456;28;20029;-62
2023/09/21 11:27:09;;;;;;;0.00;0.00;;;;;;;27.05;66.80;98564.84;4958500;28;20050;-60